Time;durP1;ratioP1;P1;durP2;ratioP2;P2;SDS_P1;SDS_P2;PMS_P1;PMS_P2;Temp;Humidity;BMP_temperature;BMP_pressure;BME280_temperature;BME280_humidity;BME280_pressure;Samples;Min_cycle;Max_cycle;Signal;HPM_P1;HPM_P2
2021/04/20 00:00:30;;;;;;;10.13;8.32;;;10.70;40.50;;;;;;4992531;28;20042;-80
2021/04/20 00:02:56;;;;;;;11.75;7.88;;;10.70;40.60;;;;;;5008938;28;20029;-81
2021/04/20 00:05:22;;;;;;;8.93;7.70;;;10.60;40.40;;;;;;5008144;28;20091;-80
2021/04/20 00:07:48;;;;;;;9.13;7.35;;;10.60;40.50;;;;;;5009057;28;20032;-81
2021/04/20 00:10:17;;;;;;;10.57;8.23;;;10.50;40.40;;;;;;5008371;28;20036;-81
2021/04/20 00:12:44;;;;;;;8.95;7.97;;;10.50;40.50;;;;;;5009116;28;20032;-82
2021/04/20 00:15:22;;;;;;;10.10;8.85;;;10.50;40.60;;;;;;5008946;28;20033;-81
2021/04/20 00:17:51;;;;;;;9.90;7.68;;;10.50;40.70;;;;;;4992980;28;20446;-81
2021/04/20 00:20:17;;;;;;;9.48;7.88;;;10.40;40.50;;;;;;4991779;28;20675;-81
2021/04/20 00:22:43;;;;;;;10.00;7.95;;;10.40;41.20;;;;;;4992495;28;20033;-82
2021/04/20 00:25:10;;;;;;;9.77;8.13;;;10.40;40.70;;;;;;4991739;28;20407;-82
2021/04/20 00:27:36;;;;;;;12.50;9.40;;;10.30;40.60;;;;;;4992333;28;20087;-81
2021/04/20 00:30:05;;;;;;;11.50;8.43;;;10.30;40.70;;;;;;5008160;28;20480;-80
2021/04/20 00:32:31;;;;;;;10.13;7.95;;;10.20;40.60;;;;;;4992648;28;20488;-80
2021/04/20 00:34:57;;;;;;;9.10;8.05;;;10.20;40.70;;;;;;5008523;28;20372;-80
2021/04/20 00:37:23;;;;;;;8.88;7.03;;;10.20;40.70;;;;;;4994817;28;20468;-81
2021/04/20 00:39:49;;;;;;;14.00;8.40;;;10.10;40.60;;;;;;5004962;28;20030;-80
2021/04/20 00:42:16;;;;;;;9.25;7.72;;;10.10;40.70;;;;;;5008484;28;20028;-80
2021/04/20 00:44:43;;;;;;;10.48;8.73;;;10.10;40.80;;;;;;5020989;28;20516;-80
2021/04/20 00:47:09;;;;;;;10.63;8.57;;;10.10;40.80;;;;;;5005460;28;20038;-80
2021/04/20 00:49:35;;;;;;;9.10;7.30;;;10.10;40.90;;;;;;4983687;28;20029;-80
2021/04/20 00:52:01;;;;;;;11.02;7.60;;;10.00;40.70;;;;;;4992346;28;20033;-80
2021/04/20 00:54:27;;;;;;;10.95;8.30;;;9.90;40.60;;;;;;5008245;28;20029;-80
2021/04/20 00:56:53;;;;;;;10.38;7.82;;;9.90;40.70;;;;;;5003575;28;20068;-80
2021/04/20 00:59:20;;;;;;;9.68;7.57;;;9.90;40.80;;;;;;4991533;28;20416;-80
2021/04/20 01:01:47;;;;;;;10.25;8.73;;;9.90;40.80;;;;;;5008848;28;20052;-80
2021/04/20 01:04:14;;;;;;;10.63;8.38;;;9.80;40.70;;;;;;5008239;28;20040;-80
2021/04/20 01:06:45;;;;;;;9.25;7.63;;;9.70;40.60;;;;;;4992318;28;20037;-80
2021/04/20 01:09:12;;;;;;;11.32;8.45;;;9.70;41.30;;;;;;5009129;28;20063;-81
2021/04/20 01:11:41;;;;;;;11.20;7.75;;;9.70;40.70;;;;;;5024395;28;20063;-81
2021/04/20 01:14:08;;;;;;;10.35;8.18;;;9.60;40.60;;;;;;5008403;28;20120;-80
2021/04/20 01:16:35;;;;;;;10.13;8.02;;;9.60;40.60;;;;;;5008501;28;20068;-81
2021/04/20 01:19:04;;;;;;;9.82;7.20;;;9.50;40.50;;;;;;5012045;28;20116;-81
2021/04/20 01:21:32;;;;;;;9.57;7.60;;;9.50;40.60;;;;;;4995231;28;20033;-80
2021/04/20 01:24:03;;;;;;;8.75;7.10;;;9.50;40.70;;;;;;5011644;28;20144;-80
2021/04/20 01:26:35;;;;;;;9.30;7.47;;;9.50;40.80;;;;;;5011596;28;20504;-81
2021/04/20 01:29:03;;;;;;;9.13;7.10;;;9.40;40.70;;;;;;5028073;28;20053;-80
2021/04/20 01:31:32;;;;;;;9.48;8.20;;;9.40;40.70;;;;;;5005781;28;20025;-80
2021/04/20 01:33:58;;;;;;;10.02;7.88;;;9.40;40.80;;;;;;5012735;28;20454;-80
2021/04/20 01:36:26;;;;;;;8.88;7.55;;;9.40;40.80;;;;;;5009404;28;20405;-81
2021/04/20 01:38:53;;;;;;;9.95;8.05;;;9.30;40.70;;;;;;5000857;28;20096;-81
2021/04/20 01:41:22;;;;;;;9.18;6.82;;;9.20;40.60;;;;;;5029360;28;20117;-80
2021/04/20 01:43:50;;;;;;;9.70;8.32;;;9.20;40.70;;;;;;5028960;28;20043;-80
2021/04/20 01:46:17;;;;;;;9.02;7.38;;;9.20;40.70;;;;;;5012445;28;20040;-80
2021/04/20 01:48:45;;;;;;;12.25;7.80;;;9.20;40.70;;;;;;4999034;28;20026;-80
2021/04/20 01:51:12;;;;;;;12.88;8.30;;;9.20;40.80;;;;;;5015217;28;20064;-79
2021/04/20 01:53:38;;;;;;;8.95;7.97;;;9.10;40.70;;;;;;5015675;28;20484;-80
2021/04/20 01:56:06;;;;;;;10.15;7.03;;;9.10;40.70;;;;;;4999631;28;20512;-80
2021/04/20 01:58:34;;;;;;;8.52;7.57;;;9.10;40.80;;;;;;4999382;28;20444;-80
2021/04/20 02:01:06;;;;;;;10.90;8.20;;;9.00;40.70;;;;;;4999522;28;20185;-80
2021/04/20 02:03:34;;;;;;;8.82;7.65;;;9.00;40.70;;;;;;5015818;28;20052;-80
2021/04/20 02:06:01;;;;;;;11.15;8.65;;;9.00;40.80;;;;;;4999394;28;20117;-81
2021/04/20 02:08:27;;;;;;;10.13;8.27;;;8.90;40.60;;;;;;4999197;28;20021;-80
2021/04/20 02:10:54;;;;;;;9.35;7.70;;;8.90;40.70;;;;;;4999293;28;20050;-80
2021/04/20 02:13:21;;;;;;;10.27;7.63;;;8.90;40.70;;;;;;5015261;28;20034;-81
2021/04/20 02:15:47;;;;;;;10.27;8.07;;;8.90;40.80;;;;;;4999460;28;20116;-80
2021/04/20 02:18:14;;;;;;;9.55;7.88;;;8.80;40.60;;;;;;4995903;28;20037;-80
2021/04/20 02:20:41;;;;;;;14.15;8.80;;;8.80;40.70;;;;;;5015409;28;20045;-80
2021/04/20 02:23:08;;;;;;;12.45;7.65;;;8.80;40.80;;;;;;5015682;28;20030;-80
2021/04/20 02:25:36;;;;;;;10.93;8.77;;;8.70;40.70;;;;;;4998911;28;20045;-80
2021/04/20 02:28:02;;;;;;;11.15;8.70;;;8.70;40.70;;;;;;4998273;28;20511;-81
2021/04/20 02:30:29;;;;;;;11.35;8.48;;;8.70;40.70;;;;;;4998883;28;20044;-81
2021/04/20 02:32:56;;;;;;;10.85;7.72;;;8.60;40.60;;;;;;5015292;28;20041;-81
2021/04/20 02:35:22;;;;;;;10.65;8.73;;;8.60;40.70;;;;;;5015341;28;20025;-81
2021/04/20 02:37:48;;;;;;;9.30;8.15;;;8.60;40.70;;;;;;4998750;28;20116;-82
2021/04/20 02:40:20;;;;;;;9.15;7.65;;;8.60;40.80;;;;;;4998918;28;20041;-81
2021/04/20 02:42:49;;;;;;;10.50;7.93;;;8.50;40.70;;;;;;5014717;28;20079;-81
2021/04/20 02:45:16;;;;;;;9.85;8.43;;;8.50;40.70;;;;;;4998604;28;20030;-80
2021/04/20 02:47:43;;;;;;;8.85;7.72;;;8.50;40.70;;;;;;4998162;28;20048;-81
2021/04/20 02:50:18;;;;;;;10.85;8.38;;;8.50;40.80;;;;;;4998636;28;20044;-80
2021/04/20 02:52:48;;;;;;;10.20;7.78;;;8.40;40.70;;;;;;5014965;28;20504;-80
2021/04/20 02:55:15;;;;;;;9.45;8.23;;;8.40;40.70;;;;;;5014682;28;20476;-80
2021/04/20 02:57:45;;;;;;;10.13;8.45;;;8.40;40.70;;;;;;5014821;28;20440;-80
2021/04/20 03:00:18;;;;;;;10.65;7.85;;;8.30;40.60;;;;;;5014753;28;20116;-80
2021/04/20 03:02:46;;;;;;;11.77;8.20;;;8.30;40.70;;;;;;5014892;28;20049;-80
2021/04/20 03:05:17;;;;;;;10.50;8.25;;;8.30;40.70;;;;;;4998256;28;20053;-80
2021/04/20 03:07:44;;;;;;;10.35;8.02;;;8.30;40.80;;;;;;5014715;28;20501;-80
2021/04/20 03:10:12;;;;;;;11.07;8.90;;;8.20;40.50;;;;;;5014457;28;20034;-80
2021/04/20 03:12:40;;;;;;;11.00;8.55;;;8.20;40.60;;;;;;5014305;28;20034;-80
2021/04/20 03:15:08;;;;;;;12.38;9.20;;;8.20;40.70;;;;;;4998013;28;20125;-81
2021/04/20 03:17:34;;;;;;;11.50;8.70;;;8.10;40.50;;;;;;5014409;28;20037;-80
2021/04/20 03:20:00;;;;;;;11.02;8.98;;;8.10;40.60;;;;;;4981885;28;20362;-80
2021/04/20 03:22:27;;;;;;;10.77;8.82;;;8.10;40.70;;;;;;4997683;28;20401;-80
2021/04/20 03:24:59;;;;;;;9.85;7.88;;;8.10;40.70;;;;;;4997507;28;20124;-80
2021/04/20 03:27:25;;;;;;;12.52;7.85;;;8.00;40.70;;;;;;4998066;28;20037;-80
2021/04/20 03:29:53;;;;;;;9.73;8.68;;;8.00;40.70;;;;;;4997569;28;20036;-80
2021/04/20 03:32:19;;;;;;;12.75;8.23;;;8.00;40.70;;;;;;4998018;28;20120;-79
2021/04/20 03:34:52;;;;;;;12.90;8.77;;;8.00;40.80;;;;;;4997847;28;20466;-80
2021/04/20 03:37:26;;;;;;;10.85;9.07;;;8.00;40.90;;;;;;4997367;28;20519;-80
2021/04/20 03:39:58;;;;;;;12.40;8.38;;;7.90;40.70;;;;;;4997159;28;20037;-80
2021/04/20 03:42:29;;;;;;;11.43;8.70;;;7.90;40.70;;;;;;4981179;28;20431;-80
2021/04/20 03:44:59;;;;;;;9.15;8.23;;;7.90;40.70;;;;;;4997304;28;20021;-80
2021/04/20 03:47:36;;;;;;;10.05;8.13;;;7.80;40.60;;;;;;4981718;28;20091;-80
2021/04/20 03:50:06;;;;;;;10.18;7.47;;;7.80;40.60;;;;;;4997366;28;20156;-81
2021/04/20 03:52:36;;;;;;;10.02;7.97;;;7.80;40.70;;;;;;4997565;28;20121;-81
2021/04/20 03:55:04;;;;;;;10.98;7.53;;;7.70;40.60;;;;;;5013902;28;20026;-81
2021/04/20 03:57:34;;;;;;;10.18;8.18;;;7.70;40.50;;;;;;5013818;28;20025;-80
2021/04/20 04:00:03;;;;;;;9.52;8.23;;;7.70;40.60;;;;;;5013711;28;20124;-81
2021/04/20 04:02:34;;;;;;;11.57;9.38;;;7.70;40.60;;;;;;5014028;28;20040;-81
2021/04/20 04:05:03;;;;;;;11.35;8.27;;;7.60;40.50;;;;;;4997224;28;20627;-81
2021/04/20 04:07:31;;;;;;;10.98;8.45;;;7.60;40.50;;;;;;5013714;28;20366;-80
2021/04/20 04:09:57;;;;;;;10.32;8.35;;;7.60;40.50;;;;;;4981270;28;20040;-81
2021/04/20 04:12:25;;;;;;;11.70;8.65;;;7.50;40.40;;;;;;4980931;28;20049;-81
2021/04/20 04:14:52;;;;;;;11.20;8.68;;;7.50;40.50;;;;;;5013310;28;20049;-81
2021/04/20 04:17:22;;;;;;;11.02;7.93;;;7.50;40.50;;;;;;4996979;28;20034;-81
2021/04/20 04:19:52;;;;;;;10.80;8.10;;;7.40;40.40;;;;;;4997367;28;20060;-81
2021/04/20 04:22:24;;;;;;;11.02;8.93;;;7.50;40.70;;;;;;5013539;28;20025;-81
2021/04/20 04:24:54;;;;;;;11.30;8.25;;;7.40;40.50;;;;;;4997298;28;20042;-81
2021/04/20 04:27:29;;;;;;;10.80;8.23;;;7.40;40.60;;;;;;4997098;28;20041;-83
2021/04/20 04:29:59;;;;;;;12.82;8.70;;;7.40;40.70;;;;;;4997030;28;20080;-80
2021/04/20 04:32:29;;;;;;;9.45;8.35;;;7.40;40.70;;;;;;4996992;28;20034;-80
2021/04/20 04:34:56;;;;;;;10.65;8.75;;;7.30;40.50;;;;;;4997098;28;20053;-79
2021/04/20 04:37:23;;;;;;;10.45;8.50;;;7.30;40.50;;;;;;4996734;28;20108;-80
2021/04/20 04:39:50;;;;;;;9.13;7.78;;;7.30;40.50;;;;;;4996908;28;20033;-80
2021/04/20 04:42:16;;;;;;;13.05;9.50;;;7.30;40.60;;;;;;4997025;28;20033;-81
2021/04/20 04:44:43;;;;;;;11.40;7.85;;;7.30;40.70;;;;;;4996927;28;20103;-81
2021/04/20 04:47:11;;;;;;;8.55;7.55;;;7.20;40.50;;;;;;5013585;28;20033;-82
2021/04/20 04:49:37;;;;;;;14.35;8.45;;;7.20;40.50;;;;;;4999170;28;20066;-81
2021/04/20 04:52:05;;;;;;;10.63;8.05;;;7.20;40.50;;;;;;4991597;28;20439;-80
2021/04/20 04:54:32;;;;;;;9.30;8.00;;;7.20;40.60;;;;;;4994132;28;20029;-81
2021/04/20 04:57:01;;;;;;;10.30;8.90;;;7.10;40.50;;;;;;4994086;28;20199;-81
2021/04/20 04:59:30;;;;;;;11.02;7.95;;;7.10;40.50;;;;;;4993773;28;20079;-81
2021/04/20 05:01:56;;;;;;;12.35;9.10;;;7.10;40.50;;;;;;5010877;28;20034;-80
2021/04/20 05:04:24;;;;;;;9.50;8.07;;;7.10;40.60;;;;;;4992165;28;20447;-80
2021/04/20 05:06:51;;;;;;;9.55;8.52;;;7.00;40.40;;;;;;4992240;28;20030;-81
2021/04/20 05:09:20;;;;;;;11.52;8.75;;;7.00;40.40;;;;;;4992170;28;20111;-81
2021/04/20 05:11:47;;;;;;;11.10;8.25;;;7.00;40.50;;;;;;4988609;28;20053;-80
2021/04/20 05:14:16;;;;;;;11.60;8.82;;;7.00;40.50;;;;;;5011790;28;20481;-81
2021/04/20 05:16:48;;;;;;;11.52;8.55;;;7.00;40.50;;;;;;5011950;28;20086;-79
2021/04/20 05:19:38;;;;;;;13.13;8.10;;;7.00;40.60;;;;;;5011756;28;20029;-80
2021/04/20 05:22:05;;;;;;;9.93;8.02;;;7.00;40.60;;;;;;5010057;28;20033;-79
2021/04/20 05:24:34;;;;;;;10.73;8.20;;;6.90;40.40;;;;;;5011531;28;20037;-79
2021/04/20 05:27:00;;;;;;;8.50;7.60;;;6.90;40.50;;;;;;5011575;28;20033;-80
2021/04/20 05:29:26;;;;;;;11.73;8.93;;;6.90;40.50;;;;;;4994921;28;20385;-80
2021/04/20 05:31:53;;;;;;;10.85;7.93;;;6.90;40.60;;;;;;5011514;28;20163;-79
2021/04/20 05:34:20;;;;;;;10.30;7.72;;;6.90;40.60;;;;;;5011546;28;20546;-79
2021/04/20 05:36:48;;;;;;;10.38;8.40;;;6.90;40.70;;;;;;5011331;28;20039;-79
2021/04/20 05:39:16;;;;;;;9.95;8.30;;;6.90;40.70;;;;;;4994370;28;20026;-80
2021/04/20 05:41:43;;;;;;;9.65;7.85;;;6.90;41.10;;;;;;5011063;28;20244;-77
2021/04/20 05:44:12;;;;;;;8.52;7.50;;;7.00;41.60;;;;;;5011183;28;20127;-79
2021/04/20 05:46:42;;;;;;;9.57;8.55;;;7.00;42.00;;;;;;5011402;28;20068;-83
2021/04/20 05:49:09;;;;;;;11.43;8.77;;;7.10;42.40;;;;;;5018241;28;20121;-80
2021/04/20 05:51:37;;;;;;;10.18;8.35;;;7.20;42.70;;;;;;5040171;28;20103;-79
2021/04/20 05:54:03;;;;;;;11.95;8.63;;;7.30;43.20;;;;;;5023612;28;20084;-78
2021/04/20 05:56:29;;;;;;;10.80;8.63;;;7.30;43.40;;;;;;4992872;28;20030;-79
2021/04/20 05:58:58;;;;;;;13.02;9.00;;;7.40;43.80;;;;;;5027293;28;20025;-85
2021/04/20 06:01:27;;;;;;;10.68;9.57;;;7.40;44.20;;;;;;5027631;28;20056;-78
2021/04/20 06:03:55;;;;;;;11.18;8.60;;;7.40;44.30;;;;;;5008798;28;20040;-79
2021/04/20 06:06:25;;;;;;;14.27;9.23;;;7.50;44.70;;;;;;5010688;28;20034;-80
2021/04/20 06:08:53;;;;;;;13.43;9.63;;;7.70;45.50;;;;;;4993920;28;20044;-78
2021/04/20 06:11:21;;;;;;;13.07;9.88;;;7.80;45.70;;;;;;5010899;28;20073;-81
2021/04/20 06:13:48;;;;;;;11.35;9.82;;;7.90;46.20;;;;;;5005762;28;20030;-78
2021/04/20 06:16:14;;;;;;;15.13;10.68;;;8.00;46.50;;;;;;5017444;28;20393;-79
2021/04/20 06:18:41;;;;;;;17.35;10.93;;;8.10;46.80;;;;;;5010401;28;20029;-78
2021/04/20 06:21:09;;;;;;;14.20;10.65;;;8.20;47.10;;;;;;4993355;28;20480;-78
2021/04/20 06:23:37;;;;;;;16.38;11.02;;;8.30;47.30;;;;;;5010815;28;20040;-80
2021/04/20 06:26:05;;;;;;;15.75;12.05;;;8.40;47.60;;;;;;5010479;28;20046;-77
2021/04/20 06:28:32;;;;;;;14.65;12.10;;;8.60;48.00;;;;;;5010297;28;20111;-80
2021/04/20 06:31:03;;;;;;;18.15;12.98;;;8.70;48.20;;;;;;5010762;28;20041;-78
2021/04/20 06:33:32;;;;;;;16.67;12.10;;;8.80;48.50;;;;;;5028021;28;20030;-79
2021/04/20 06:36:01;;;;;;;15.77;13.18;;;9.00;48.80;;;;;;5010238;28;20033;-80
2021/04/20 06:38:28;;;;;;;13.02;10.63;;;9.10;48.90;;;;;;4989672;28;20037;-80
2021/04/20 06:40:57;;;;;;;13.43;10.70;;;9.40;49.40;;;;;;4991450;28;20481;-80
2021/04/20 06:43:41;;;;;;;15.30;12.93;;;9.50;49.50;;;;;;5009416;28;20034;-80
2021/04/20 06:46:15;;;;;;;14.43;11.90;;;9.70;50.00;;;;;;4993172;28;20044;-79
2021/04/20 06:49:01;;;;;;;17.48;13.02;;;9.90;50.10;;;;;;5033149;28;20084;-78
2021/04/20 06:51:49;;;;;;;14.57;11.70;;;10.10;50.40;;;;;;4993699;28;20037;-79
2021/04/20 06:54:30;;;;;;;15.63;13.27;;;10.30;50.50;;;;;;5009725;28;20029;-79
2021/04/20 06:57:14;;;;;;;16.25;13.38;;;10.50;50.60;;;;;;4994110;28;20056;-79
2021/04/20 07:00:00;;;;;;;;;;;10.80;50.90;;;;;;5010280;28;20048;-80
2021/04/20 07:03:02;;;;;;;16.08;12.75;;;11.00;50.40;;;;;;4992617;28;20376;-78
2021/04/20 07:06:06;;;;;;;14.82;12.32;;;11.30;50.80;;;;;;4992911;28;20033;-78
2021/04/20 07:08:51;;;;;;;17.58;13.70;;;11.60;51.10;;;;;;5009544;28;20111;-78
2021/04/20 07:11:17;;;;;;;14.32;11.40;;;11.90;51.40;;;;;;5009598;28;20060;-78
2021/04/20 07:13:49;;;;;;;16.17;12.02;;;12.10;51.40;;;;;;5027405;28;20042;-79
2021/04/20 07:16:25;;;;;;;14.77;13.27;;;12.30;51.80;;;;;;5006903;28;20041;-78
2021/04/20 07:19:29;;;;;;;15.45;12.77;;;12.60;52.10;;;;;;5009217;28;20032;-79
2021/04/20 07:22:16;;;;;;;17.30;12.43;;;12.80;52.20;;;;;;4993649;28;20520;-79
2021/04/20 07:25:05;;;;;;;15.15;12.20;;;13.10;52.20;;;;;;5009454;28;20235;-79
2021/04/20 07:28:04;;;;;;;13.23;11.45;;;13.40;52.30;;;;;;5008661;28;20041;-79
2021/04/20 07:30:51;;;;;;;15.80;12.88;;;13.70;52.40;;;;;;4992967;28;20033;-79
2021/04/20 07:33:17;;;;;;;14.90;12.00;;;13.90;52.20;;;;;;5009678;28;20393;-79
2021/04/20 07:35:56;;;;;;;14.65;12.68;;;14.10;52.20;;;;;;5008952;28;20055;-78
2021/04/20 07:38:52;;;;;;;14.98;12.15;;;14.30;52.20;;;;;;5012699;28;20532;-80
2021/04/20 07:41:27;;;;;;;15.13;13.05;;;14.50;52.10;;;;;;5028053;28;20124;-78
2021/04/20 07:44:35;;;;;;;14.45;12.35;;;14.70;52.00;;;;;;5009203;28;20042;-78
2021/04/20 07:47:09;;;;;;;16.90;14.05;;;14.90;52.00;;;;;;4963342;28;20037;-79
2021/04/20 07:49:50;;;;;;;15.60;12.10;;;15.10;51.90;;;;;;4990190;28;20033;-78
2021/04/20 07:52:26;;;;;;;17.00;12.90;;;15.30;51.90;;;;;;5007274;28;20022;-78
2021/04/20 07:55:14;;;;;;;16.20;14.35;;;15.50;51.90;;;;;;4992810;28;20033;-79
2021/04/20 07:57:45;;;;;;;18.17;12.85;;;15.60;51.50;;;;;;5010159;28;20140;-80
2021/04/20 08:00:16;;;;;;;16.38;12.57;;;15.80;51.60;;;;;;5009141;28;20029;-81
2021/04/20 08:03:03;;;;;;;16.48;13.68;;;16.00;51.50;;;;;;5009636;28;20041;-81
2021/04/20 08:05:41;;;;;;;16.88;15.07;;;16.20;51.40;;;;;;5009056;28;20373;-83
2021/04/20 08:08:28;;;;;;;16.60;12.60;;;16.30;51.30;;;;;;5024888;28;20503;-83
2021/04/20 08:11:05;;;;;;;15.35;13.73;;;16.50;51.20;;;;;;5005665;28;20095;-83
2021/04/20 08:13:44;;;;;;;18.05;14.02;;;16.70;51.10;;;;;;4991451;28;20037;-82
2021/04/20 08:16:36;;;;;;;16.45;13.32;;;16.80;50.90;;;;;;4992626;28;20140;-83
2021/04/20 08:19:27;;;;;;;18.48;15.35;;;17.00;50.80;;;;;;5008876;28;20099;-82
2021/04/20 08:21:57;;;;;;;22.30;15.07;;;17.00;50.30;;;;;;5008549;28;20099;-83
2021/04/20 08:24:55;;;;;;;16.83;14.38;;;17.10;50.30;;;;;;5008901;28;20076;-83
2021/04/20 08:27:47;;;;;;;16.42;14.65;;;17.10;49.90;;;;;;5010988;28;20029;-81
2021/04/20 08:30:46;;;;;;;31.63;15.57;;;17.00;49.50;;;;;;4989906;28;20117;-84
2021/04/20 08:33:18;;;;;;;19.15;16.25;;;16.90;48.70;;;;;;5019317;28;20439;-80
2021/04/20 08:35:49;;;;;;;23.35;16.05;;;16.80;48.40;;;;;;4996780;28;20504;-82
2021/04/20 08:38:28;;;;;;;22.73;16.65;;;16.60;48.00;;;;;;5012156;28;20037;-81
2021/04/20 08:41:31;;;;;;;19.33;13.75;;;16.50;47.90;;;;;;5012140;28;20116;-80
2021/04/20 08:44:10;;;;;;;17.08;13.43;;;16.40;48.00;;;;;;5011684;28;20022;-81
2021/04/20 08:46:54;;;;;;;18.23;14.27;;;16.40;48.10;;;;;;5020866;28;20083;-81
2021/04/20 08:49:41;;;;;;;17.00;13.93;;;16.30;48.00;;;;;;4995946;28;20029;-81
2021/04/20 08:52:25;;;;;;;17.80;14.30;;;16.30;47.90;;;;;;4995873;28;20029;-82
2021/04/20 08:55:13;;;;;;;17.00;13.57;;;16.20;47.80;;;;;;5012895;28;20048;-83
2021/04/20 08:58:16;;;;;;;17.33;13.55;;;16.20;47.70;;;;;;5012891;28;20041;-84
2021/04/20 09:01:05;;;;;;;16.15;13.98;;;16.20;47.70;;;;;;5012716;28;20025;-82
2021/04/20 09:03:57;;;;;;;19.33;14.85;;;16.20;48.30;;;;;;5013792;28;20038;-83
2021/04/20 09:06:30;;;;;;;14.50;12.90;;;16.20;47.80;;;;;;4997947;28;20409;-85
2021/04/20 09:09:20;;;;;;;18.80;13.88;;;16.20;47.70;;;;;;5007340;28;20458;-84
2021/04/20 09:11:51;;;;;;;17.55;13.57;;;16.10;47.50;;;;;;5010889;28;20049;-84
2021/04/20 09:14:35;;;;;;;15.85;13.38;;;16.20;47.60;;;;;;4995276;28;20732;-84
2021/04/20 09:17:08;;;;;;;15.25;12.98;;;16.20;47.50;;;;;;4996229;28;20041;-84
2021/04/20 09:19:45;;;;;;;16.27;13.07;;;16.20;47.50;;;;;;5012014;28;20677;-84
2021/04/20 09:22:32;;;;;;;15.18;12.45;;;16.20;47.40;;;;;;5011892;28;20037;-84
2021/04/20 09:25:05;;;;;;;14.85;13.23;;;16.20;47.30;;;;;;5011838;28;20127;-85
2021/04/20 09:28:03;;;;;;;15.50;12.13;;;16.20;47.30;;;;;;5012049;28;20125;-85
2021/04/20 09:30:36;;;;;;;13.60;12.20;;;16.20;47.20;;;;;;5028297;28;20085;-85
2021/04/20 09:33:10;;;;;;;13.75;11.57;;;16.30;47.30;;;;;;5011553;28;20160;-84
2021/04/20 09:35:38;;;;;;;15.20;11.77;;;16.30;47.30;;;;;;5011643;28;20072;-85
2021/04/20 09:38:12;;;;;;;16.98;12.18;;;16.30;47.20;;;;;;5011895;28;20034;-87
2021/04/20 09:40:41;;;;;;;13.38;12.02;;;16.30;47.10;;;;;;5013246;28;20037;-84
2021/04/20 09:43:23;;;;;;;16.10;11.73;;;16.40;47.20;;;;;;5011671;28;20037;-84
2021/04/20 09:46:16;;;;;;;14.18;11.00;;;16.40;47.10;;;;;;5028803;28;20042;-84
2021/04/20 09:48:54;;;;;;;13.20;10.95;;;16.40;47.00;;;;;;5011543;28;20193;-82
2021/04/20 09:51:29;;;;;;;14.35;10.63;;;16.50;47.10;;;;;;5028140;28;20438;-83
2021/04/20 09:54:24;;;;;;;14.57;11.40;;;16.50;47.00;;;;;;4995595;28;20044;-83
2021/04/20 09:56:56;;;;;;;13.02;10.65;;;16.60;47.10;;;;;;5012066;28;20042;-84
2021/04/20 09:59:33;;;;;;;13.00;10.80;;;16.60;47.00;;;;;;5011957;28;20025;-82
2021/04/20 10:02:38;;;;;;;11.80;10.23;;;16.70;47.10;;;;;;4996442;28;20396;-82
2021/04/20 10:05:16;;;;;;;13.38;9.93;;;16.70;47.00;;;;;;5007398;28;20411;-84
2021/04/20 10:08:06;;;;;;;15.02;11.88;;;16.70;46.90;;;;;;5010999;28;20030;-81
2021/04/20 10:10:40;;;;;;;12.82;10.60;;;16.80;47.00;;;;;;5027351;28;20413;-81
2021/04/20 10:13:24;;;;;;;;;;;16.80;46.90;;;;;;5027384;28;20064;-82
2021/04/20 10:16:02;;;;;;;11.63;9.95;;;16.80;47.00;;;;;;5026881;28;19917;-81
2021/04/20 10:18:54;;;;;;;12.70;9.85;;;16.90;47.00;;;;;;5027236;28;20044;-81
2021/04/20 10:21:27;;;;;;;13.40;9.80;;;16.90;46.90;;;;;;4994002;28;20094;-81
2021/04/20 10:24:34;;;;;;;12.93;10.25;;;17.00;47.00;;;;;;5010400;28;20092;-82
2021/04/20 10:27:19;;;;;;;13.55;11.20;;;17.00;46.90;;;;;;4950292;28;20026;-81
2021/04/20 10:30:02;;;;;;;12.55;10.25;;;17.10;47.00;;;;;;4967070;28;20034;-81
2021/04/20 10:32:34;;;;;;;9.80;8.80;;;17.20;47.10;;;;;;4993186;28;20598;-82
2021/04/20 10:35:03;;;;;;;13.98;10.48;;;17.20;47.00;;;;;;5010194;28;20033;-82
2021/04/20 10:37:39;;;;;;;12.13;9.82;;;17.30;47.10;;;;;;5009955;28;20033;-81
2021/04/20 10:40:09;;;;;;;12.85;10.20;;;17.30;46.90;;;;;;4990888;28;20037;-82
2021/04/20 10:42:37;;;;;;;13.48;10.82;;;17.40;47.00;;;;;;4977717;28;20107;-82
2021/04/20 10:45:06;;;;;;;11.90;9.13;;;17.40;46.90;;;;;;5010321;28;20041;-82
2021/04/20 10:47:34;;;;;;;12.75;9.90;;;17.50;46.90;;;;;;4993262;28;20029;-79
2021/04/20 10:50:00;;;;;;;10.73;9.23;;;17.60;47.00;;;;;;5008499;28;20511;-80
2021/04/20 10:52:34;;;;;;;14.40;9.90;;;17.70;47.10;;;;;;5009873;28;20040;-79
2021/04/20 10:55:07;;;;;;;11.82;9.80;;;17.70;47.00;;;;;;5026812;28;20041;-80
2021/04/20 10:57:37;;;;;;;13.40;10.90;;;17.80;47.00;;;;;;5009789;28;20493;-80
2021/04/20 11:00:04;;;;;;;11.82;10.63;;;17.80;46.90;;;;;;5010350;28;20030;-81
2021/04/20 11:02:52;;;;;;;10.80;9.68;;;17.90;47.00;;;;;;4992645;28;20045;-79
2021/04/20 11:05:22;;;;;;;11.35;9.10;;;18.00;47.00;;;;;;4993454;28;20061;-79
2021/04/20 11:07:50;;;;;;;12.30;9.70;;;18.00;46.90;;;;;;5010045;28;20164;-80
2021/04/20 11:10:17;;;;;;;11.55;9.35;;;18.10;47.00;;;;;;4993354;28;20057;-80
2021/04/20 11:12:48;;;;;;;12.18;10.05;;;18.10;46.90;;;;;;5009079;28;20390;-81
2021/04/20 11:15:25;;;;;;;12.30;10.23;;;18.20;46.90;;;;;;5027817;28;20044;-80
2021/04/20 11:18:02;;;;;;;11.38;10.15;;;18.20;46.80;;;;;;5030275;28;20544;-78
2021/04/20 11:20:42;;;;;;;11.95;9.15;;;18.30;46.80;;;;;;5047204;28;20039;-78
2021/04/20 11:23:08;;;;;;;12.27;10.23;;;18.30;46.70;;;;;;5038724;28;20111;-79
2021/04/20 11:25:36;;;;;;;11.48;10.07;;;18.40;46.90;;;;;;4992559;28;20412;-79
2021/04/20 11:28:14;;;;;;;11.50;9.68;;;18.50;46.90;;;;;;5026829;28;20035;-79
2021/04/20 11:30:50;;;;;;;10.45;9.35;;;18.50;46.80;;;;;;5025890;28;20036;-79
2021/04/20 11:33:27;;;;;;;10.98;9.57;;;18.60;46.90;;;;;;5009334;28;20026;-80
2021/04/20 11:35:57;;;;;;;10.73;8.90;;;18.70;47.00;;;;;;5008480;28;20041;-80
2021/04/20 11:38:23;;;;;;;11.75;9.27;;;18.70;46.90;;;;;;4992548;28;20029;-80
2021/04/20 11:41:02;;;;;;;9.18;8.27;;;18.80;47.00;;;;;;5022456;28;20065;-79
2021/04/20 11:43:31;;;;;;;12.00;9.82;;;18.80;46.90;;;;;;5025921;28;20095;-78
2021/04/20 11:45:58;;;;;;;11.90;9.73;;;18.90;47.00;;;;;;5041565;28;20065;-78
2021/04/20 11:48:32;;;;;;;11.80;9.98;;;19.00;47.10;;;;;;5035922;28;20409;-78
2021/04/20 11:51:01;;;;;;;9.77;8.68;;;19.00;47.00;;;;;;5007900;28;20034;-78
2021/04/20 11:53:36;;;;;;;10.23;9.13;;;19.10;47.10;;;;;;5021850;28;20041;-80
2021/04/20 11:56:04;;;;;;;10.70;9.52;;;19.10;47.00;;;;;;4989213;28;20033;-79
2021/04/20 11:58:41;;;;;;;10.50;8.32;;;19.20;47.10;;;;;;5013382;28;20040;-79
2021/04/20 12:01:23;;;;;;;11.20;9.20;;;19.30;47.20;;;;;;5025459;28;20269;-79
2021/04/20 12:04:03;;;;;;;9.52;8.60;;;19.30;47.10;;;;;;5008316;28;20052;-78
2021/04/20 12:06:50;;;;;;;8.63;7.70;;;19.40;47.20;;;;;;5026649;28;20029;-79
2021/04/20 12:09:25;;;;;;;9.32;8.23;;;19.50;47.30;;;;;;5008510;28;20033;-82
2021/04/20 12:11:54;;;;;;;13.48;8.52;;;19.60;47.40;;;;;;5025413;28;20083;-80
2021/04/20 12:14:23;;;;;;;10.15;8.77;;;19.70;47.50;;;;;;5008253;28;20117;-82
2021/04/20 12:16:50;;;;;;;10.02;8.60;;;19.70;47.40;;;;;;5008839;28;20471;-80
2021/04/20 12:19:19;;;;;;;11.68;8.57;;;19.80;47.50;;;;;;5008539;28;20404;-82
2021/04/20 12:21:48;;;;;;;9.88;7.63;;;20.00;47.80;;;;;;5007911;28;20029;-81
2021/04/20 12:24:21;;;;;;;9.60;8.38;;;20.00;47.60;;;;;;5008133;28;20477;-79
2021/04/20 12:27:01;;;;;;;9.25;8.02;;;20.10;47.70;;;;;;5026990;28;20097;-80
2021/04/20 12:29:37;;;;;;;9.30;8.27;;;20.20;47.80;;;;;;5009613;28;20043;-79
2021/04/20 12:32:14;;;;;;;8.60;7.75;;;20.30;47.90;;;;;;4993275;28;20120;-79
2021/04/20 12:34:40;;;;;;;8.75;7.30;;;20.40;47.90;;;;;;4992373;28;20475;-80
2021/04/20 12:37:07;;;;;;;9.95;8.00;;;20.50;48.00;;;;;;5009286;28;20038;-80
2021/04/20 12:39:51;;;;;;;10.25;8.18;;;20.60;48.10;;;;;;5008536;28;20350;-79
2021/04/20 12:42:19;;;;;;;;;;;20.60;48.00;;;;;;5009378;28;20382;-79
2021/04/20 12:44:54;;;;;;;8.85;7.95;;;20.70;48.20;;;;;;5009906;28;19917;-82
2021/04/20 12:47:29;;;;;;;9.05;7.72;;;20.80;48.20;;;;;;4993235;28;20099;-78
2021/04/20 12:49:58;;;;;;;9.93;8.15;;;21.00;48.40;;;;;;5008589;28;20040;-79
2021/04/20 12:52:28;;;;;;;7.65;6.70;;;21.10;48.60;;;;;;5008628;28;20053;-80
2021/04/20 12:55:06;;;;;;;8.65;7.45;;;21.20;48.60;;;;;;5024881;28;20029;-79
2021/04/20 12:57:37;;;;;;;9.55;7.65;;;21.30;48.60;;;;;;5008444;28;20313;-80
2021/04/20 13:00:16;;;;;;;12.23;7.97;;;21.40;48.70;;;;;;5024362;28;20041;-77
2021/04/20 13:02:48;;;;;;;7.90;6.78;;;21.60;48.90;;;;;;5026286;28;20404;-79
2021/04/20 13:05:19;;;;;;;7.55;6.85;;;21.70;49.00;;;;;;5008716;28;20041;-80
2021/04/20 13:07:46;;;;;;;8.27;7.30;;;21.80;49.60;;;;;;4991757;28;20436;-79
2021/04/20 13:10:21;;;;;;;8.20;7.40;;;22.00;49.20;;;;;;5007555;28;20489;-78